Argyle, Illinois
Current Conditions -  °F | °C
As of 2:54 AM on Friday 31 Oct 2014 (Local Time) from KRFD Reporting Station
Overcast Overcast  
Wind Chill: 36°   Ceiling: 4900
Heat Index: 44°   Visibility: 10mi
Dew Point: 29°   Wind: 17mph
Humidity: 55%   Direction: 330°NNW
Pressure: 30.09"   Gusts: NA
Location:  42.3911°N, 88.9094°W
Report Text: KRFD 310754Z 33015KT 10SM OVC049 07/M02 A3009 RMK AO2 RAE30 SLP194 P0000 T00671017
Loading
Personal Weather Stations






























Interactive Weather Map
Tropical Storm Tracking
New forecast layout! Learn more

10-Day Weather Forecast

Advertisements
Track Severe Weather on mobile